createdAt,value
2023-02-11T00:00:32.222Z,54.83
2023-02-11T00:02:40.086Z,45.90
2023-02-11T00:04:48.467Z,47.17
2023-02-11T00:06:56.287Z,44.78
2023-02-11T00:09:04.657Z,47.83
2023-02-11T00:11:16.572Z,47.58
2023-02-11T00:13:24.652Z,45.75
2023-02-11T00:15:35.353Z,51.28
2023-02-11T00:17:43.436Z,43.72
2023-02-11T00:19:52.842Z,41.78
2023-02-11T00:22:00.749Z,47.15
2023-02-11T00:24:09.305Z,44.45
2023-02-11T00:26:18.721Z,48.00
2023-02-11T00:28:27.889Z,48.38
2023-02-11T00:30:38.611Z,44.35
2023-02-11T00:32:46.493Z,52.65
2023-02-11T00:34:55.500Z,40.78
2023-02-11T00:37:03.318Z,46.70
2023-02-11T00:39:11.833Z,49.00
2023-02-11T00:41:37.262Z,50.15
2023-02-11T00:43:45.934Z,49.20
2023-02-11T00:45:56.557Z,52.08
2023-02-11T00:48:04.829Z,47.53
2023-02-11T00:50:15.814Z,45.55
2023-02-11T00:52:23.794Z,46.75
2023-02-11T00:54:31.708Z,43.70
2023-02-11T00:56:39.613Z,46.53
2023-02-11T00:58:47.577Z,47.53
2023-02-11T01:00:58.789Z,51.47
2023-02-11T01:03:07.181Z,48.85
2023-02-11T01:05:14.989Z,50.67
2023-02-11T01:07:22.982Z,44.90
2023-02-11T01:09:30.932Z,47.67
2023-02-11T01:11:40.045Z,51.95
2023-02-11T01:13:49.149Z,44.60
2023-02-11T01:15:59.898Z,44.92
2023-02-11T01:18:08.537Z,49.55
2023-02-11T01:20:18.960Z,47.08
2023-02-11T01:22:26.763Z,47.30
2023-02-11T01:24:34.729Z,46.17
2023-02-11T01:26:42.923Z,48.22
2023-02-11T01:28:51.062Z,43.67
2023-02-11T01:31:02.912Z,48.38
2023-02-11T01:33:10.783Z,44.30
2023-02-11T01:35:18.777Z,40.70
2023-02-11T01:37:27.416Z,48.30
2023-02-11T01:39:36.148Z,43.92
2023-02-11T01:41:43.878Z,47.05
2023-02-11T01:43:52.942Z,45.60
2023-02-11T01:46:08.338Z,49.72
2023-02-11T01:48:20.154Z,44.75
2023-02-11T01:50:31.397Z,44.33
2023-02-11T01:52:43.239Z,46.40
2023-02-11T01:55:07.836Z,47.20
2023-02-11T01:57:24.904Z,46.40
2023-02-11T01:59:37.709Z,45.75
2023-02-11T02:01:55.689Z,42.92
2023-02-11T02:04:06.234Z,48.80
2023-02-11T02:06:22.998Z,50.22
2023-02-11T02:08:37.959Z,46.72
2023-02-11T02:10:56.628Z,45.50
2023-02-11T02:13:04.701Z,48.08
2023-02-11T02:15:25.542Z,50.17
2023-02-11T02:17:45.833Z,46.38
2023-02-11T02:20:15.197Z,47.78
2023-02-11T02:23:05.773Z,47.75
2023-02-11T02:25:31.341Z,48.22
2023-02-11T02:27:48.682Z,50.15
2023-02-11T02:30:21.342Z,45.97
2023-02-11T02:32:53.168Z,43.63
2023-02-11T02:35:09.723Z,46.97
2023-02-11T02:37:29.559Z,44.63
2023-02-11T02:39:39.431Z,44.17
2023-02-11T02:41:48.860Z,45.53
2023-02-11T02:43:57.240Z,43.00
2023-02-11T02:46:19.111Z,48.45
2023-02-11T02:48:37.361Z,45.40
2023-02-11T02:50:45.530Z,41.53
2023-02-11T02:53:02.778Z,47.28
2023-02-11T02:55:20.787Z,45.20
2023-02-11T02:57:38.824Z,49.00
2023-02-11T02:59:58.810Z,41.67
2023-02-11T03:02:16.324Z,43.88
2023-02-11T03:04:35.034Z,50.92
2023-02-11T03:06:51.222Z,45.95
2023-02-11T03:09:06.037Z,44.55
2023-02-11T03:11:16.057Z,43.63
2023-02-11T03:13:28.250Z,49.53
2023-02-11T03:15:42.867Z,41.65
2023-02-11T03:17:54.906Z,48.00
2023-02-11T03:20:07.815Z,45.50
2023-02-11T03:22:22.137Z,45.10
2023-02-11T03:24:34.815Z,44.78
2023-02-11T03:26:47.516Z,48.85
2023-02-11T03:29:03.896Z,45.08
2023-02-11T03:31:21.025Z,44.70
2023-02-11T03:33:35.612Z,47.38
2023-02-11T03:35:55.991Z,41.92
2023-02-11T03:38:08.485Z,48.05
2023-02-11T03:40:20.348Z,47.22
2023-02-11T03:42:33.064Z,44.38
2023-02-11T03:44:47.358Z,45.47
2023-02-11T03:46:57.442Z,46.55
2023-02-11T03:49:09.435Z,47.00
2023-02-11T03:51:44.061Z,41.22
2023-02-11T03:53:58.087Z,46.13
2023-02-11T03:56:10.451Z,45.78
2023-02-11T03:58:18.431Z,44.65
2023-02-11T04:00:33.179Z,43.10
2023-02-11T04:02:42.238Z,43.47
2023-02-11T04:04:50.539Z,44.38
2023-02-11T04:07:01.053Z,42.88
2023-02-11T04:09:09.562Z,51.22
2023-02-11T04:11:17.394Z,44.35
2023-02-11T04:13:25.345Z,44.40
2023-02-11T04:15:33.260Z,45.25
2023-02-11T04:17:41.804Z,45.50
2023-02-11T04:19:49.588Z,45.33
2023-02-11T04:22:00.294Z,45.05
2023-02-11T04:24:24.200Z,43.67
2023-02-11T04:26:32.325Z,41.58
2023-02-11T04:28:40.276Z,45.53
2023-02-11T04:30:48.099Z,45.78
2023-02-11T04:32:56.713Z,45.17
2023-02-11T04:35:05.190Z,41.97
2023-02-11T04:37:17.469Z,43.05
2023-02-11T04:39:25.408Z,47.70
2023-02-11T04:41:33.316Z,46.30
2023-02-11T04:43:41.082Z,44.25
2023-02-11T04:45:49.408Z,45.90
2023-02-11T04:47:57.405Z,43.63
2023-02-11T04:50:05.634Z,44.85
2023-02-11T04:52:17.316Z,39.88
2023-02-11T04:54:25.285Z,46.08
2023-02-11T04:56:33.382Z,49.08
2023-02-11T04:58:41.384Z,45.88
2023-02-11T05:00:49.983Z,47.67
2023-02-11T05:02:57.913Z,49.28
2023-02-11T05:05:06.352Z,46.85
2023-02-11T05:07:17.092Z,44.65
2023-02-11T05:09:24.922Z,45.47
2023-02-11T05:11:32.636Z,41.55
2023-02-11T05:13:40.655Z,43.63
2023-02-11T05:15:49.203Z,45.40
2023-02-11T05:17:57.272Z,45.38
2023-02-11T05:20:05.020Z,48.22
2023-02-11T05:22:12.895Z,46.20
2023-02-11T05:24:23.710Z,52.60
2023-02-11T05:26:32.021Z,41.67
2023-02-11T05:28:40.548Z,46.28
2023-02-11T05:30:48.400Z,41.90
2023-02-11T05:32:56.931Z,48.08
2023-02-11T05:35:05.169Z,45.80
2023-02-11T05:37:13.117Z,45.53
2023-02-11T05:39:23.919Z,45.40
2023-02-11T05:41:31.879Z,43.33
2023-02-11T05:43:39.971Z,42.20
2023-02-11T05:45:47.750Z,45.50
2023-02-11T05:47:55.988Z,43.88
2023-02-11T05:50:03.823Z,41.97
2023-02-11T05:52:11.643Z,42.08
2023-02-11T05:54:20.030Z,51.72
2023-02-11T05:56:30.993Z,38.55
2023-02-11T05:58:38.893Z,45.03
2023-02-11T06:00:46.863Z,47.05
2023-02-11T06:02:55.525Z,45.90
2023-02-11T06:05:03.486Z,44.53
2023-02-11T06:07:11.518Z,43.03
2023-02-11T06:09:19.332Z,42.25
2023-02-11T06:11:27.153Z,45.95
2023-02-11T06:13:38.306Z,43.65
2023-02-11T06:15:46.512Z,44.03
2023-02-11T06:17:57.311Z,48.78
2023-02-11T06:20:07.125Z,45.88
2023-02-11T06:22:14.946Z,43.42
2023-02-11T06:24:44.286Z,45.42
2023-02-11T06:26:50.787Z,46.40
2023-02-11T06:29:03.177Z,46.22
2023-02-11T06:31:12.174Z,45.55
2023-02-11T06:33:20.069Z,42.63
2023-02-11T06:35:28.035Z,42.45
2023-02-11T06:37:39.437Z,42.53
2023-02-11T06:39:48.035Z,39.58
2023-02-11T06:41:55.997Z,45.28
2023-02-11T06:44:06.972Z,41.72
2023-02-11T06:46:15.625Z,45.58
2023-02-11T06:48:23.597Z,43.85
2023-02-11T06:50:31.620Z,44.83
2023-02-11T06:52:39.416Z,42.72
2023-02-11T06:54:47.114Z,42.95
2023-02-11T06:56:55.036Z,42.72
2023-02-11T06:59:03.588Z,48.42
2023-02-11T07:01:17.271Z,43.20
2023-02-11T07:03:25.059Z,48.35
2023-02-11T07:05:34.402Z,43.55
2023-02-11T07:07:42.298Z,40.65
2023-02-11T07:09:50.223Z,43.47
2023-02-11T07:11:58.428Z,45.63
2023-02-11T07:14:08.814Z,44.50
2023-02-11T07:16:22.055Z,41.35
2023-02-11T07:18:29.934Z,41.90
2023-02-11T07:20:39.736Z,45.28
2023-02-11T07:22:47.506Z,43.80
2023-02-11T07:24:55.496Z,44.88
2023-02-11T07:27:03.397Z,45.58
2023-02-11T07:29:11.219Z,42.53
2023-02-11T07:31:23.781Z,40.15
2023-02-11T07:33:31.756Z,44.80
2023-02-11T07:35:41.687Z,46.95
2023-02-11T07:37:50.409Z,45.40
2023-02-11T07:39:58.355Z,44.20
2023-02-11T07:42:06.867Z,45.40
2023-02-11T07:44:14.841Z,45.92
2023-02-11T07:46:27.797Z,42.05
2023-02-11T07:48:36.413Z,45.20
2023-02-11T07:50:44.191Z,38.90
2023-02-11T07:52:52.214Z,42.42
2023-02-11T07:55:00.088Z,44.05
2023-02-11T07:57:09.574Z,42.15
2023-02-11T07:59:17.439Z,46.35
2023-02-11T08:01:29.068Z,40.95
2023-02-11T08:03:37.710Z,41.83
2023-02-11T08:05:45.451Z,42.13
2023-02-11T08:07:55.183Z,47.00
2023-02-11T08:10:03.014Z,39.10
2023-02-11T08:12:10.959Z,43.83
2023-02-11T08:14:18.911Z,48.85
2023-02-11T08:16:31.598Z,46.15
2023-02-11T08:18:42.088Z,45.55
2023-02-11T08:20:50.830Z,45.42
2023-02-11T08:22:59.316Z,46.15
2023-02-11T08:25:08.053Z,47.05
2023-02-11T08:27:15.933Z,42.65
2023-02-11T08:29:23.905Z,44.45
2023-02-11T08:31:38.152Z,43.08
2023-02-11T08:33:46.592Z,49.40
2023-02-11T08:35:54.420Z,45.25
2023-02-11T08:38:05.180Z,45.17
2023-02-11T08:40:13.807Z,45.30
2023-02-11T08:42:21.818Z,45.25
2023-02-11T08:44:30.138Z,43.35
2023-02-11T08:46:40.924Z,42.80
2023-02-11T08:48:50.282Z,40.92
2023-02-11T08:51:00.856Z,44.63
2023-02-11T08:53:08.994Z,42.05
2023-02-11T08:55:16.738Z,46.55
2023-02-11T08:57:24.635Z,45.30
2023-02-11T08:59:33.199Z,44.58
2023-02-11T09:01:44.417Z,45.22
2023-02-11T09:03:52.811Z,43.55
2023-02-11T09:06:01.066Z,49.75
2023-02-11T09:08:08.906Z,46.05
2023-02-11T09:10:17.068Z,42.70
2023-02-11T09:12:25.009Z,48.92
2023-02-11T09:14:33.084Z,46.92
2023-02-11T09:16:46.457Z,47.28
2023-02-11T09:18:54.820Z,46.70
2023-02-11T09:21:08.324Z,42.67
2023-02-11T09:23:18.539Z,44.35
2023-02-11T09:25:26.532Z,48.33
2023-02-11T09:27:34.299Z,44.78
2023-02-11T09:29:42.373Z,44.22
2023-02-11T09:31:52.990Z,38.72
2023-02-11T09:34:03.757Z,44.83
2023-02-11T09:36:12.446Z,42.30
2023-02-11T09:38:20.223Z,42.78
2023-02-11T09:40:28.122Z,39.13
2023-02-11T09:42:46.692Z,37.38
2023-02-11T09:44:55.323Z,36.38
2023-02-11T09:47:07.967Z,37.33
2023-02-11T09:49:23.365Z,35.47
2023-02-11T09:51:39.430Z,33.75
2023-02-11T09:53:47.506Z,33.22
2023-02-11T09:55:59.707Z,36.60
2023-02-11T09:58:15.160Z,33.75
2023-02-11T10:00:26.687Z,30.55
2023-02-11T10:02:50.054Z,30.83
2023-02-11T10:05:16.564Z,32.40
2023-02-11T10:07:32.491Z,31.98
2023-02-11T10:09:53.029Z,32.42
2023-02-11T10:12:14.312Z,32.38
2023-02-11T10:14:37.891Z,34.00
2023-02-11T10:16:58.313Z,33.65
2023-02-11T10:19:22.866Z,36.63
2023-02-11T10:21:42.513Z,39.20
2023-02-11T10:23:54.484Z,37.03
2023-02-11T10:26:03.340Z,37.13
2023-02-11T10:28:17.410Z,37.00
2023-02-11T10:30:33.734Z,37.08
2023-02-11T10:32:47.258Z,36.15
2023-02-11T10:35:01.792Z,33.60
2023-02-11T10:37:09.659Z,34.72
2023-02-11T10:39:19.491Z,36.83
2023-02-11T10:41:33.321Z,36.33
2023-02-11T10:43:41.810Z,38.42
2023-02-11T10:45:52.364Z,37.40
2023-02-11T10:48:00.469Z,32.47
2023-02-11T10:50:22.631Z,34.33
2023-02-11T10:52:31.425Z,35.38
2023-02-11T10:54:39.248Z,36.60
2023-02-11T10:56:50.215Z,33.80
2023-02-11T10:59:02.418Z,34.58
2023-02-11T11:01:24.012Z,33.40
2023-02-11T11:03:39.126Z,32.70
2023-02-11T11:05:55.562Z,31.40
2023-02-11T11:08:08.455Z,35.97
2023-02-11T11:10:31.377Z,34.72
2023-02-11T11:12:49.663Z,33.38
2023-02-11T11:15:01.452Z,33.35
2023-02-11T11:17:21.977Z,35.65
2023-02-11T11:19:30.268Z,38.55
2023-02-11T11:21:45.958Z,31.83
2023-02-11T11:23:57.426Z,25.48
2023-02-11T11:26:09.621Z,22.83
2023-02-11T11:28:25.080Z,22.80
2023-02-11T11:30:42.174Z,24.63
2023-02-11T11:32:50.373Z,24.42
2023-02-11T11:35:00.151Z,21.88
2023-02-11T11:37:22.193Z,22.95
2023-02-11T11:39:32.655Z,32.03
2023-02-11T11:41:52.794Z,33.70
2023-02-11T11:44:07.081Z,32.40
2023-02-11T11:46:15.312Z,35.05
2023-02-11T11:48:28.093Z,33.85
2023-02-11T11:50:44.762Z,35.47
2023-02-11T11:53:00.346Z,32.55
2023-02-11T11:55:19.510Z,30.30
2023-02-11T11:57:31.463Z,30.40
2023-02-11T11:59:39.929Z,25.88
2023-02-11T12:02:02.196Z,27.73
2023-02-11T12:04:38.359Z,26.98
2023-02-11T12:06:59.024Z,29.58
2023-02-11T12:09:18.959Z,29.55
2023-02-11T12:11:33.407Z,24.05
2023-02-11T12:14:09.418Z,23.73
2023-02-11T12:16:26.099Z,21.13
2023-02-11T12:18:59.567Z,20.10
2023-02-11T12:21:29.670Z,19.85
2023-02-11T12:23:51.232Z,22.70
2023-02-11T12:26:11.030Z,21.48
2023-02-11T12:28:32.079Z,21.60
2023-02-11T12:31:04.525Z,20.30
2023-02-11T12:33:23.015Z,24.95
2023-02-11T12:35:41.878Z,20.98
2023-02-11T12:38:08.642Z,19.67
2023-02-11T12:40:22.057Z,20.05
2023-02-11T12:43:07.003Z,24.73
2023-02-11T12:45:28.494Z,21.25
2023-02-11T12:47:47.637Z,20.35
2023-02-11T12:50:12.206Z,20.52
2023-02-11T12:52:32.882Z,19.00
2023-02-11T12:54:46.801Z,19.20
2023-02-11T12:57:02.930Z,18.70
2023-02-11T12:59:20.069Z,20.25
2023-02-11T13:01:32.328Z,19.85
2023-02-11T13:03:44.481Z,18.30
2023-02-11T13:05:56.313Z,19.05
2023-02-11T13:08:08.693Z,18.33
2023-02-11T13:10:28.069Z,19.70
2023-02-11T13:12:50.763Z,16.02
2023-02-11T13:15:05.587Z,15.50
2023-02-11T13:17:20.170Z,19.42
2023-02-11T13:19:35.030Z,16.02
2023-02-11T13:22:03.131Z,14.48
2023-02-11T13:24:21.949Z,12.63
2023-02-11T13:26:36.388Z,12.98
2023-02-11T13:28:52.165Z,12.75
2023-02-11T13:31:07.282Z,12.07
2023-02-11T13:33:24.757Z,11.73
2023-02-11T13:35:34.801Z,11.90
2023-02-11T13:37:43.184Z,13.98
2023-02-11T13:40:00.568Z,11.07
2023-02-11T13:42:08.677Z,11.70
2023-02-11T13:44:26.479Z,12.55
2023-02-11T13:46:57.341Z,13.23
2023-02-11T13:49:05.558Z,14.05
2023-02-11T13:51:16.209Z,12.50
2023-02-11T13:53:24.872Z,14.70
2023-02-11T13:55:35.040Z,13.77
2023-02-11T13:57:43.615Z,19.08
2023-02-11T13:59:54.256Z,12.70
2023-02-11T14:02:35.783Z,17.25
2023-02-11T14:05:17.704Z,12.80
2023-02-11T14:07:44.323Z,14.93
2023-02-11T14:09:53.486Z,17.00
2023-02-11T14:12:27.179Z,16.85
2023-02-11T14:14:36.333Z,14.85
2023-02-11T14:17:27.831Z,19.05
2023-02-11T14:19:40.281Z,19.55
2023-02-11T14:21:49.651Z,18.05
2023-02-11T14:24:32.466Z,15.50
2023-02-11T14:26:51.347Z,19.05
2023-02-11T14:29:05.512Z,18.10
2023-02-11T14:31:16.361Z,17.92
2023-02-11T14:34:05.376Z,17.38
2023-02-11T14:36:37.056Z,15.68
2023-02-11T14:39:01.708Z,15.55
2023-02-11T14:41:13.705Z,23.88
2023-02-11T14:43:29.551Z,18.23
2023-02-11T14:45:40.602Z,18.45
2023-02-11T14:47:55.515Z,17.20
2023-02-11T14:50:03.336Z,18.30
2023-02-11T14:52:30.201Z,18.98
2023-02-11T14:54:39.985Z,18.42
2023-02-11T14:56:48.493Z,20.17
2023-02-11T14:58:58.327Z,19.08
2023-02-11T15:01:10.755Z,19.77
2023-02-11T15:03:32.777Z,21.10
2023-02-11T15:05:40.627Z,20.77
2023-02-11T15:07:54.308Z,18.27
2023-02-11T15:10:02.361Z,22.50
2023-02-11T15:12:20.826Z,18.67
2023-02-11T15:14:31.615Z,16.85
2023-02-11T15:16:44.883Z,21.35
2023-02-11T15:18:56.090Z,20.30
2023-02-11T15:21:04.329Z,19.42
2023-02-11T15:23:24.010Z,20.63
2023-02-11T15:25:34.182Z,19.27
2023-02-11T15:27:43.112Z,19.50
2023-02-11T15:29:53.131Z,21.35
2023-02-11T15:32:09.731Z,20.60
2023-02-11T15:34:17.494Z,18.83
2023-02-11T15:36:28.999Z,21.83
2023-02-11T15:38:40.233Z,23.70
2023-02-11T15:40:56.606Z,21.02
2023-02-11T15:43:08.377Z,22.70
2023-02-11T15:45:29.112Z,21.42
2023-02-11T15:47:37.259Z,20.00
2023-02-11T15:49:48.147Z,23.40
2023-02-11T15:51:59.830Z,20.88
2023-02-11T15:54:20.080Z,20.30
2023-02-11T15:56:33.307Z,22.00
2023-02-11T15:58:42.244Z,24.65
2023-02-11T16:00:52.327Z,22.73
2023-02-11T16:03:00.428Z,20.38
2023-02-11T16:05:11.078Z,21.85
2023-02-11T16:07:42.461Z,20.33
2023-02-11T16:10:00.690Z,21.73
2023-02-11T16:12:27.189Z,20.95
2023-02-11T16:14:39.526Z,22.40
2023-02-11T16:16:51.292Z,22.20
2023-02-11T16:19:05.133Z,20.52
2023-02-11T16:21:19.783Z,21.10
2023-02-11T16:23:30.582Z,21.27
2023-02-11T16:25:40.930Z,22.70
2023-02-11T16:27:52.505Z,22.88
2023-02-11T16:30:01.505Z,22.95
2023-02-11T16:32:11.437Z,23.85
2023-02-11T16:34:21.819Z,20.88
2023-02-11T16:36:30.149Z,21.23
2023-02-11T16:38:38.558Z,21.73
2023-02-11T16:40:50.162Z,23.95
2023-02-11T16:42:58.349Z,23.20
2023-02-11T16:45:06.893Z,24.98
2023-02-11T16:47:22.299Z,23.15
2023-02-11T16:49:33.101Z,22.83
2023-02-11T16:51:43.864Z,24.85
2023-02-11T16:53:51.706Z,32.42
2023-02-11T16:56:02.055Z,25.40
2023-02-11T16:58:11.558Z,26.23
2023-02-11T17:00:20.873Z,24.52
2023-02-11T17:02:30.608Z,25.33
2023-02-11T17:04:38.618Z,24.58
2023-02-11T17:06:48.482Z,27.23
2023-02-11T17:08:58.852Z,26.58
2023-02-11T17:11:09.478Z,24.00
2023-02-11T17:13:17.454Z,27.65
2023-02-11T17:15:25.279Z,29.58
2023-02-11T17:17:33.273Z,27.00
2023-02-11T17:19:42.069Z,26.73
2023-02-11T17:21:52.156Z,26.98
2023-02-11T17:24:00.129Z,27.40
2023-02-11T17:26:11.242Z,26.42
2023-02-11T17:28:19.085Z,29.77
2023-02-11T17:30:29.774Z,30.25
2023-02-11T17:32:37.670Z,28.60
2023-02-11T17:34:45.577Z,24.42
2023-02-11T17:36:53.642Z,25.85
2023-02-11T17:39:01.873Z,25.70
2023-02-11T17:41:12.943Z,24.52
2023-02-11T17:43:20.964Z,27.33
2023-02-11T17:45:28.836Z,29.48
2023-02-11T17:47:36.659Z,26.92
2023-02-11T17:49:45.153Z,28.33
2023-02-11T17:51:52.977Z,27.50
2023-02-11T17:54:02.321Z,30.45
2023-02-11T17:56:12.923Z,27.15
2023-02-11T17:58:20.899Z,33.28
2023-02-11T18:00:28.950Z,26.90
2023-02-11T18:02:36.752Z,25.52
2023-02-11T18:04:44.958Z,30.38
2023-02-11T18:06:53.740Z,29.00
2023-02-11T18:09:02.542Z,28.98
2023-02-11T18:11:16.434Z,28.63
2023-02-11T18:13:24.530Z,32.40
2023-02-11T18:15:32.323Z,30.48
2023-02-11T18:17:40.744Z,26.83
2023-02-11T18:19:48.768Z,30.45
2023-02-11T18:21:58.062Z,32.40
2023-02-11T18:24:08.623Z,28.92
2023-02-11T18:26:21.058Z,30.27
2023-02-11T18:28:29.012Z,28.65
2023-02-11T18:30:37.148Z,28.95
2023-02-11T18:32:45.096Z,29.25
2023-02-11T18:34:52.888Z,30.45
2023-02-11T18:37:00.810Z,32.83
2023-02-11T18:39:08.661Z,30.00
2023-02-11T18:41:19.670Z,32.05
2023-02-11T18:43:31.759Z,32.90
2023-02-11T18:45:39.600Z,32.30
2023-02-11T18:47:47.447Z,32.92
2023-02-11T18:49:55.453Z,29.58
2023-02-11T18:52:03.472Z,30.63
2023-02-11T18:54:11.373Z,28.85
2023-02-11T18:56:23.205Z,30.48
2023-02-11T18:58:31.043Z,28.02
2023-02-11T19:00:41.788Z,31.40
2023-02-11T19:02:49.914Z,28.55
2023-02-11T19:04:57.802Z,31.75
2023-02-11T19:07:06.646Z,30.75
2023-02-11T19:09:19.053Z,28.30
2023-02-11T19:11:42.062Z,30.55
2023-02-11T19:13:51.460Z,30.33
2023-02-11T19:15:59.272Z,30.63
2023-02-11T19:18:07.518Z,30.25
2023-02-11T19:20:18.031Z,29.45
2023-02-11T19:22:26.032Z,29.02
2023-02-11T19:24:34.041Z,34.47
2023-02-11T19:26:45.128Z,39.55
2023-02-11T19:28:53.172Z,38.25
2023-02-11T19:31:01.366Z,38.38
2023-02-11T19:33:10.297Z,36.35
2023-02-11T19:35:18.662Z,37.88
2023-02-11T19:37:26.488Z,39.45
2023-02-11T19:39:34.546Z,37.63
2023-02-11T19:41:45.090Z,37.50
2023-02-11T19:43:56.756Z,37.83
2023-02-11T19:46:04.864Z,38.78
2023-02-11T19:48:15.782Z,37.22
2023-02-11T19:50:23.955Z,39.70
2023-02-11T19:52:32.091Z,39.20
2023-02-11T19:54:42.532Z,34.35
2023-02-11T19:56:53.238Z,36.85
2023-02-11T19:59:01.035Z,34.55
2023-02-11T20:01:10.443Z,32.90
2023-02-11T20:03:18.307Z,30.25
2023-02-11T20:05:26.229Z,32.38
2023-02-11T20:07:34.245Z,34.78
2023-02-11T20:09:42.696Z,34.10
2023-02-11T20:11:53.285Z,32.30
2023-02-11T20:14:02.219Z,33.70
2023-02-11T20:16:12.482Z,37.72
2023-02-11T20:18:20.325Z,32.55
2023-02-11T20:20:28.265Z,31.88
2023-02-11T20:22:36.391Z,32.30
2023-02-11T20:24:44.462Z,31.55
2023-02-11T20:26:56.092Z,32.47
2023-02-11T20:29:05.047Z,30.50
2023-02-11T20:31:14.177Z,32.50
2023-02-11T20:33:22.116Z,37.67
2023-02-11T20:35:29.942Z,32.55
2023-02-11T20:37:38.927Z,31.85
2023-02-11T20:39:48.273Z,34.22
2023-02-11T20:41:59.545Z,31.05
2023-02-11T20:44:10.574Z,33.30
2023-02-11T20:46:21.951Z,33.97
2023-02-11T20:48:29.904Z,37.53
2023-02-11T20:50:38.257Z,32.78
2023-02-11T20:52:46.447Z,33.40
2023-02-11T20:54:54.467Z,33.75
2023-02-11T20:57:04.915Z,36.47
2023-02-11T20:59:14.625Z,33.05
2023-02-11T21:01:25.134Z,38.65
2023-02-11T21:03:33.100Z,37.38
2023-02-11T21:05:41.093Z,40.88
2023-02-11T21:07:49.084Z,37.50
2023-02-11T21:09:57.047Z,39.90
2023-02-11T21:12:08.911Z,36.15
2023-02-11T21:14:17.997Z,35.25
2023-02-11T21:16:26.106Z,37.63
2023-02-11T21:18:34.369Z,34.85
2023-02-11T21:20:42.351Z,36.20
2023-02-11T21:22:50.326Z,36.20
2023-02-11T21:24:58.480Z,36.97
2023-02-11T21:27:09.256Z,36.05
2023-02-11T21:29:17.382Z,41.47
2023-02-11T21:31:27.453Z,39.45
2023-02-11T21:33:36.361Z,43.22
2023-02-11T21:35:44.152Z,39.08
2023-02-11T21:37:51.989Z,35.88
2023-02-11T21:39:59.755Z,37.40
2023-02-11T21:42:10.591Z,43.58
2023-02-11T21:44:18.687Z,38.08
2023-02-11T21:46:26.582Z,41.20
2023-02-11T21:48:34.595Z,45.95
2023-02-11T21:50:43.302Z,45.20
2023-02-11T21:52:50.975Z,39.63
2023-02-11T21:54:58.975Z,40.40
2023-02-11T21:57:06.917Z,39.50
2023-02-11T21:59:18.027Z,41.05
2023-02-11T22:01:27.914Z,39.80
2023-02-11T22:03:35.799Z,45.72
2023-02-11T22:05:44.043Z,37.03
2023-02-11T22:07:52.477Z,39.67
2023-02-11T22:10:00.326Z,41.20
2023-02-11T22:12:08.927Z,38.30
2023-02-11T22:14:22.121Z,40.80
2023-02-11T22:16:30.937Z,40.08
2023-02-11T22:18:39.431Z,39.10
2023-02-11T22:20:47.264Z,43.47
2023-02-11T22:22:55.212Z,44.47
2023-02-11T22:25:10.896Z,45.63
2023-02-11T22:27:20.810Z,40.92
2023-02-11T22:29:31.519Z,40.00
2023-02-11T22:31:39.784Z,40.67
2023-02-11T22:33:49.697Z,40.50
2023-02-11T22:36:01.636Z,43.28
2023-02-11T22:38:09.466Z,38.00
2023-02-11T22:40:17.572Z,42.25
2023-02-11T22:42:26.154Z,40.85
2023-02-11T22:44:36.653Z,44.40
2023-02-11T22:46:44.521Z,40.00
2023-02-11T22:48:52.915Z,42.35
2023-02-11T22:51:17.625Z,42.00
2023-02-11T22:53:27.365Z,49.60
2023-02-11T22:55:41.181Z,41.05
2023-02-11T22:57:50.069Z,43.05
2023-02-11T23:00:00.583Z,47.38
2023-02-11T23:02:08.599Z,44.47
2023-02-11T23:04:19.356Z,42.95
2023-02-11T23:06:27.514Z,41.92
2023-02-11T23:08:40.610Z,41.17
2023-02-11T23:10:49.429Z,41.40
2023-02-11T23:13:00.322Z,40.72
2023-02-11T23:15:11.402Z,41.35
2023-02-11T23:17:19.689Z,41.65
2023-02-11T23:19:27.584Z,40.78
2023-02-11T23:21:38.336Z,40.67
2023-02-11T23:23:47.464Z,43.33
2023-02-11T23:25:55.685Z,42.38
2023-02-11T23:28:04.025Z,42.00
2023-02-11T23:30:18.086Z,41.10
2023-02-11T23:32:27.048Z,43.00
2023-02-11T23:34:34.885Z,41.55
2023-02-11T23:36:42.915Z,39.10
2023-02-11T23:38:51.253Z,41.33
2023-02-11T23:40:59.096Z,38.42
2023-02-11T23:43:07.102Z,43.80
2023-02-11T23:45:17.922Z,36.53
2023-02-11T23:47:25.937Z,43.38
2023-02-11T23:49:34.012Z,44.05
2023-02-11T23:51:41.828Z,43.22
2023-02-11T23:53:49.784Z,41.80
2023-02-11T23:55:57.686Z,42.83
2023-02-11T23:58:05.559Z,43.63
